sensor_id;sensor_type;location;lat;lon;timestamp;P1;durP1;ratioP1;P2;durP2;ratioP2
41629;SDS011;27322;49.488;8.480;2023-07-09T00:01:54;8.07;;;4.10;;
41629;SDS011;27322;49.488;8.480;2023-07-09T00:04:19;8.93;;;4.47;;
41629;SDS011;27322;49.488;8.480;2023-07-09T00:06:45;10.63;;;4.40;;
41629;SDS011;27322;49.488;8.480;2023-07-09T00:09:14;8.70;;;4.28;;
41629;SDS011;27322;49.488;8.480;2023-07-09T00:11:45;13.50;;;4.90;;
41629;SDS011;27322;49.488;8.480;2023-07-09T00:14:11;8.60;;;4.25;;
41629;SDS011;27322;49.488;8.480;2023-07-09T00:16:38;8.32;;;4.15;;
41629;SDS011;27322;49.488;8.480;2023-07-09T00:19:08;7.95;;;4.43;;
41629;SDS011;27322;49.488;8.480;2023-07-09T00:21:39;8.73;;;4.32;;
41629;SDS011;27322;49.488;8.480;2023-07-09T00:24:05;8.25;;;4.47;;
41629;SDS011;27322;49.488;8.480;2023-07-09T00:26:31;8.85;;;4.10;;
41629;SDS011;27322;49.488;8.480;2023-07-09T00:29:00;8.02;;;4.07;;
41629;SDS011;27322;49.488;8.480;2023-07-09T00:31:26;9.70;;;4.40;;
41629;SDS011;27322;49.488;8.480;2023-07-09T00:33:52;10.07;;;4.55;;
41629;SDS011;27322;49.488;8.480;2023-07-09T00:36:29;9.70;;;4.30;;
41629;SDS011;27322;49.488;8.480;2023-07-09T00:38:59;10.15;;;4.63;;
41629;SDS011;27322;49.488;8.480;2023-07-09T00:41:29;9.70;;;4.30;;
41629;SDS011;27322;49.488;8.480;2023-07-09T00:43:58;8.55;;;3.83;;
41629;SDS011;27322;49.488;8.480;2023-07-09T00:49:13;8.02;;;4.40;;
41629;SDS011;27322;49.488;8.480;2023-07-09T00:51:42;8.55;;;4.38;;
41629;SDS011;27322;49.488;8.480;2023-07-09T00:54:13;9.45;;;4.10;;
41629;SDS011;27322;49.488;8.480;2023-07-09T00:56:59;8.25;;;4.05;;
41629;SDS011;27322;49.488;8.480;2023-07-09T00:59:28;10.25;;;4.60;;
41629;SDS011;27322;49.488;8.480;2023-07-09T01:01:56;10.98;;;4.38;;
41629;SDS011;27322;49.488;8.480;2023-07-09T01:04:25;8.38;;;4.22;;
41629;SDS011;27322;49.488;8.480;2023-07-09T01:06:52;8.25;;;4.53;;
41629;SDS011;27322;49.488;8.480;2023-07-09T01:09:19;7.38;;;3.90;;
41629;SDS011;27322;49.488;8.480;2023-07-09T01:11:47;10.05;;;4.40;;
41629;SDS011;27322;49.488;8.480;2023-07-09T01:14:13;8.77;;;4.20;;
41629;SDS011;27322;49.488;8.480;2023-07-09T01:17:03;8.68;;;3.95;;
41629;SDS011;27322;49.488;8.480;2023-07-09T01:19:35;9.27;;;4.35;;
41629;SDS011;27322;49.488;8.480;2023-07-09T01:22:08;8.15;;;4.15;;
41629;SDS011;27322;49.488;8.480;2023-07-09T01:27:35;9.13;;;4.03;;
41629;SDS011;27322;49.488;8.480;2023-07-09T01:30:08;9.55;;;4.00;;
41629;SDS011;27322;49.488;8.480;2023-07-09T01:32:37;9.57;;;4.38;;
41629;SDS011;27322;49.488;8.480;2023-07-09T01:35:03;9.23;;;4.35;;
41629;SDS011;27322;49.488;8.480;2023-07-09T01:37:33;7.20;;;4.15;;
41629;SDS011;27322;49.488;8.480;2023-07-09T01:40:00;8.52;;;4.20;;
41629;SDS011;27322;49.488;8.480;2023-07-09T01:42:26;8.20;;;4.50;;
41629;SDS011;27322;49.488;8.480;2023-07-09T01:44:53;7.40;;;4.07;;
41629;SDS011;27322;49.488;8.480;2023-07-09T01:47:20;9.80;;;4.22;;
41629;SDS011;27322;49.488;8.480;2023-07-09T01:49:48;9.43;;;4.13;;
41629;SDS011;27322;49.488;8.480;2023-07-09T01:52:15;7.55;;;4.15;;
41629;SDS011;27322;49.488;8.480;2023-07-09T01:54:44;7.75;;;4.60;;
41629;SDS011;27322;49.488;8.480;2023-07-09T01:59:50;8.45;;;4.65;;
41629;SDS011;27322;49.488;8.480;2023-07-09T02:02:18;13.57;;;4.72;;
41629;SDS011;27322;49.488;8.480;2023-07-09T02:04:54;8.98;;;4.22;;
41629;SDS011;27322;49.488;8.480;2023-07-09T02:07:22;8.70;;;4.05;;
41629;SDS011;27322;49.488;8.480;2023-07-09T02:09:49;9.88;;;4.10;;
41629;SDS011;27322;49.488;8.480;2023-07-09T02:12:15;9.63;;;4.00;;
41629;SDS011;27322;49.488;8.480;2023-07-09T02:14:42;9.93;;;4.43;;
41629;SDS011;27322;49.488;8.480;2023-07-09T02:17:09;10.82;;;4.68;;
41629;SDS011;27322;49.488;8.480;2023-07-09T02:19:36;9.18;;;4.10;;
41629;SDS011;27322;49.488;8.480;2023-07-09T02:22:02;7.00;;;4.03;;
41629;SDS011;27322;49.488;8.480;2023-07-09T02:24:28;10.35;;;4.78;;
41629;SDS011;27322;49.488;8.480;2023-07-09T02:26:54;10.25;;;4.18;;
41629;SDS011;27322;49.488;8.480;2023-07-09T02:29:20;9.13;;;4.05;;
41629;SDS011;27322;49.488;8.480;2023-07-09T02:31:47;11.88;;;4.40;;
41629;SDS011;27322;49.488;8.480;2023-07-09T02:34:14;9.48;;;4.25;;
41629;SDS011;27322;49.488;8.480;2023-07-09T02:36:39;8.20;;;4.50;;
41629;SDS011;27322;49.488;8.480;2023-07-09T02:39:08;9.52;;;4.10;;
41629;SDS011;27322;49.488;8.480;2023-07-09T02:41:38;11.75;;;4.38;;
41629;SDS011;27322;49.488;8.480;2023-07-09T02:44:07;8.70;;;4.03;;
41629;SDS011;27322;49.488;8.480;2023-07-09T02:46:33;10.57;;;4.32;;
41629;SDS011;27322;49.488;8.480;2023-07-09T02:48:59;12.27;;;5.00;;
41629;SDS011;27322;49.488;8.480;2023-07-09T02:51:25;9.07;;;4.15;;
41629;SDS011;27322;49.488;8.480;2023-07-09T02:53:55;8.10;;;3.78;;
41629;SDS011;27322;49.488;8.480;2023-07-09T02:56:22;9.02;;;4.40;;
41629;SDS011;27322;49.488;8.480;2023-07-09T02:58:48;8.55;;;4.22;;
41629;SDS011;27322;49.488;8.480;2023-07-09T03:01:15;10.07;;;4.07;;
41629;SDS011;27322;49.488;8.480;2023-07-09T03:03:41;9.05;;;4.05;;
41629;SDS011;27322;49.488;8.480;2023-07-09T03:06:06;8.80;;;4.18;;
41629;SDS011;27322;49.488;8.480;2023-07-09T03:08:32;9.27;;;3.90;;
41629;SDS011;27322;49.488;8.480;2023-07-09T03:10:58;12.05;;;4.13;;
41629;SDS011;27322;49.488;8.480;2023-07-09T03:13:24;9.48;;;4.57;;
41629;SDS011;27322;49.488;8.480;2023-07-09T03:15:54;8.52;;;4.65;;
41629;SDS011;27322;49.488;8.480;2023-07-09T03:18:23;9.05;;;4.38;;
41629;SDS011;27322;49.488;8.480;2023-07-09T03:20:49;7.88;;;4.20;;
41629;SDS011;27322;49.488;8.480;2023-07-09T03:23:15;8.85;;;4.22;;
41629;SDS011;27322;49.488;8.480;2023-07-09T03:25:41;11.57;;;4.28;;
41629;SDS011;27322;49.488;8.480;2023-07-09T03:28:07;10.65;;;4.70;;
41629;SDS011;27322;49.488;8.480;2023-07-09T03:30:33;7.75;;;4.22;;
41629;SDS011;27322;49.488;8.480;2023-07-09T03:32:58;12.20;;;4.38;;
41629;SDS011;27322;49.488;8.480;2023-07-09T03:35:25;9.85;;;4.22;;
41629;SDS011;27322;49.488;8.480;2023-07-09T03:37:51;10.23;;;4.25;;
41629;SDS011;27322;49.488;8.480;2023-07-09T03:40:23;9.23;;;4.40;;
41629;SDS011;27322;49.488;8.480;2023-07-09T03:42:49;9.40;;;4.07;;
41629;SDS011;27322;49.488;8.480;2023-07-09T03:45:15;8.18;;;4.40;;
41629;SDS011;27322;49.488;8.480;2023-07-09T03:47:40;9.10;;;4.63;;
41629;SDS011;27322;49.488;8.480;2023-07-09T03:50:08;7.93;;;4.20;;
41629;SDS011;27322;49.488;8.480;2023-07-09T03:52:34;9.50;;;4.00;;
41629;SDS011;27322;49.488;8.480;2023-07-09T03:55:00;11.10;;;4.50;;
41629;SDS011;27322;49.488;8.480;2023-07-09T03:57:28;11.43;;;4.20;;
41629;SDS011;27322;49.488;8.480;2023-07-09T03:59:54;11.43;;;4.53;;
41629;SDS011;27322;49.488;8.480;2023-07-09T04:02:19;8.68;;;4.32;;
41629;SDS011;27322;49.488;8.480;2023-07-09T04:04:45;7.90;;;4.35;;
41629;SDS011;27322;49.488;8.480;2023-07-09T04:07:11;8.02;;;4.20;;
41629;SDS011;27322;49.488;8.480;2023-07-09T04:09:37;7.35;;;3.83;;
41629;SDS011;27322;49.488;8.480;2023-07-09T04:12:03;9.32;;;4.45;;
41629;SDS011;27322;49.488;8.480;2023-07-09T04:14:29;9.05;;;4.43;;
41629;SDS011;27322;49.488;8.480;2023-07-09T04:16:54;10.05;;;4.55;;
41629;SDS011;27322;49.488;8.480;2023-07-09T04:19:20;7.40;;;4.57;;
41629;SDS011;27322;49.488;8.480;2023-07-09T04:21:46;8.25;;;4.22;;
41629;SDS011;27322;49.488;8.480;2023-07-09T04:24:11;8.10;;;5.00;;
41629;SDS011;27322;49.488;8.480;2023-07-09T04:26:38;9.05;;;4.43;;
41629;SDS011;27322;49.488;8.480;2023-07-09T04:29:05;8.75;;;4.45;;
41629;SDS011;27322;49.488;8.480;2023-07-09T04:31:31;8.70;;;4.22;;
41629;SDS011;27322;49.488;8.480;2023-07-09T04:33:57;8.35;;;4.57;;
41629;SDS011;27322;49.488;8.480;2023-07-09T04:36:22;9.32;;;4.97;;
41629;SDS011;27322;49.488;8.480;2023-07-09T04:38:48;9.07;;;4.53;;
41629;SDS011;27322;49.488;8.480;2023-07-09T04:41:14;9.80;;;4.72;;
41629;SDS011;27322;49.488;8.480;2023-07-09T04:43:39;10.68;;;4.38;;
41629;SDS011;27322;49.488;8.480;2023-07-09T04:46:05;9.10;;;4.80;;
41629;SDS011;27322;49.488;8.480;2023-07-09T04:48:30;7.70;;;4.00;;
41629;SDS011;27322;49.488;8.480;2023-07-09T04:50:56;11.32;;;4.45;;
41629;SDS011;27322;49.488;8.480;2023-07-09T04:53:21;8.57;;;4.72;;
41629;SDS011;27322;49.488;8.480;2023-07-09T04:55:49;8.57;;;4.60;;
41629;SDS011;27322;49.488;8.480;2023-07-09T04:58:14;8.77;;;4.60;;
41629;SDS011;27322;49.488;8.480;2023-07-09T05:00:41;9.50;;;4.55;;
41629;SDS011;27322;49.488;8.480;2023-07-09T05:03:07;8.10;;;3.80;;
41629;SDS011;27322;49.488;8.480;2023-07-09T05:05:33;9.52;;;4.20;;
41629;SDS011;27322;49.488;8.480;2023-07-09T05:07:59;8.10;;;4.50;;
41629;SDS011;27322;49.488;8.480;2023-07-09T05:10:25;8.82;;;4.40;;
41629;SDS011;27322;49.488;8.480;2023-07-09T05:12:51;7.95;;;4.40;;
41629;SDS011;27322;49.488;8.480;2023-07-09T05:15:19;9.77;;;4.60;;
41629;SDS011;27322;49.488;8.480;2023-07-09T05:17:45;7.97;;;4.45;;
41629;SDS011;27322;49.488;8.480;2023-07-09T05:20:11;11.05;;;4.68;;
41629;SDS011;27322;49.488;8.480;2023-07-09T05:22:38;6.72;;;4.28;;
41629;SDS011;27322;49.488;8.480;2023-07-09T05:25:03;9.70;;;4.38;;
41629;SDS011;27322;49.488;8.480;2023-07-09T05:27:29;11.02;;;4.45;;
41629;SDS011;27322;49.488;8.480;2023-07-09T05:29:55;10.60;;;4.60;;
41629;SDS011;27322;49.488;8.480;2023-07-09T05:32:20;9.73;;;4.53;;
41629;SDS011;27322;49.488;8.480;2023-07-09T05:34:46;9.70;;;4.22;;
41629;SDS011;27322;49.488;8.480;2023-07-09T05:37:11;9.45;;;4.63;;
41629;SDS011;27322;49.488;8.480;2023-07-09T05:39:37;9.32;;;4.50;;
41629;SDS011;27322;49.488;8.480;2023-07-09T05:42:03;9.60;;;4.72;;
41629;SDS011;27322;49.488;8.480;2023-07-09T05:44:28;8.35;;;4.40;;
41629;SDS011;27322;49.488;8.480;2023-07-09T05:46:54;9.07;;;4.18;;
41629;SDS011;27322;49.488;8.480;2023-07-09T05:49:20;11.40;;;4.85;;
41629;SDS011;27322;49.488;8.480;2023-07-09T05:51:45;9.57;;;4.90;;
41629;SDS011;27322;49.488;8.480;2023-07-09T05:54:11;7.82;;;4.60;;
41629;SDS011;27322;49.488;8.480;2023-07-09T05:56:37;9.75;;;5.30;;
41629;SDS011;27322;49.488;8.480;2023-07-09T05:59:05;10.70;;;4.97;;
41629;SDS011;27322;49.488;8.480;2023-07-09T06:01:30;10.75;;;5.03;;
41629;SDS011;27322;49.488;8.480;2023-07-09T06:03:56;8.77;;;4.75;;
41629;SDS011;27322;49.488;8.480;2023-07-09T06:06:21;12.05;;;5.63;;
41629;SDS011;27322;49.488;8.480;2023-07-09T06:08:47;11.05;;;4.63;;
41629;SDS011;27322;49.488;8.480;2023-07-09T06:11:13;9.18;;;4.60;;
41629;SDS011;27322;49.488;8.480;2023-07-09T06:13:38;7.93;;;4.03;;
41629;SDS011;27322;49.488;8.480;2023-07-09T06:16:04;9.07;;;4.22;;
41629;SDS011;27322;49.488;8.480;2023-07-09T06:18:30;9.95;;;4.30;;
41629;SDS011;27322;49.488;8.480;2023-07-09T06:20:58;10.18;;;4.95;;
41629;SDS011;27322;49.488;8.480;2023-07-09T06:23:24;7.65;;;4.28;;
41629;SDS011;27322;49.488;8.480;2023-07-09T06:25:50;10.05;;;4.35;;
41629;SDS011;27322;49.488;8.480;2023-07-09T06:28:18;12.40;;;4.97;;
41629;SDS011;27322;49.488;8.480;2023-07-09T06:30:45;9.00;;;4.25;;
41629;SDS011;27322;49.488;8.480;2023-07-09T06:33:12;8.38;;;4.35;;
41629;SDS011;27322;49.488;8.480;2023-07-09T06:35:45;9.77;;;4.63;;
41629;SDS011;27322;49.488;8.480;2023-07-09T06:38:15;7.47;;;4.15;;
41629;SDS011;27322;49.488;8.480;2023-07-09T06:40:41;9.95;;;4.80;;
41629;SDS011;27322;49.488;8.480;2023-07-09T06:43:07;7.20;;;3.83;;
41629;SDS011;27322;49.488;8.480;2023-07-09T06:45:33;10.00;;;4.32;;
41629;SDS011;27322;49.488;8.480;2023-07-09T06:47:59;11.23;;;4.50;;
41629;SDS011;27322;49.488;8.480;2023-07-09T06:50:25;9.27;;;4.22;;
41629;SDS011;27322;49.488;8.480;2023-07-09T06:52:51;8.05;;;4.55;;
41629;SDS011;27322;49.488;8.480;2023-07-09T06:55:17;9.18;;;3.63;;
41629;SDS011;27322;49.488;8.480;2023-07-09T06:57:42;9.27;;;4.20;;
41629;SDS011;27322;49.488;8.480;2023-07-09T07:00:08;10.77;;;4.60;;
41629;SDS011;27322;49.488;8.480;2023-07-09T07:02:34;10.98;;;3.90;;
41629;SDS011;27322;49.488;8.480;2023-07-09T07:05:00;9.50;;;4.38;;
41629;SDS011;27322;49.488;8.480;2023-07-09T07:07:28;7.97;;;4.00;;
41629;SDS011;27322;49.488;8.480;2023-07-09T07:09:54;7.03;;;3.92;;
41629;SDS011;27322;49.488;8.480;2023-07-09T07:12:23;9.80;;;3.80;;
41629;SDS011;27322;49.488;8.480;2023-07-09T07:14:51;8.65;;;4.07;;
41629;SDS011;27322;49.488;8.480;2023-07-09T07:17:17;9.13;;;4.25;;
41629;SDS011;27322;49.488;8.480;2023-07-09T07:19:43;9.20;;;4.50;;
41629;SDS011;27322;49.488;8.480;2023-07-09T07:22:09;8.23;;;4.05;;
41629;SDS011;27322;49.488;8.480;2023-07-09T07:24:34;8.48;;;3.95;;
41629;SDS011;27322;49.488;8.480;2023-07-09T07:27:00;7.20;;;3.80;;
41629;SDS011;27322;49.488;8.480;2023-07-09T07:29:25;8.90;;;4.30;;
41629;SDS011;27322;49.488;8.480;2023-07-09T07:31:51;6.93;;;3.95;;
41629;SDS011;27322;49.488;8.480;2023-07-09T07:34:18;6.32;;;3.90;;
41629;SDS011;27322;49.488;8.480;2023-07-09T07:36:43;7.45;;;4.03;;
41629;SDS011;27322;49.488;8.480;2023-07-09T07:39:09;8.30;;;3.85;;
41629;SDS011;27322;49.488;8.480;2023-07-09T07:41:35;6.35;;;4.03;;
41629;SDS011;27322;49.488;8.480;2023-07-09T07:44:00;7.38;;;4.22;;
41629;SDS011;27322;49.488;8.480;2023-07-09T07:46:26;10.38;;;4.28;;
41629;SDS011;27322;49.488;8.480;2023-07-09T07:48:51;7.75;;;3.90;;
41629;SDS011;27322;49.488;8.480;2023-07-09T07:51:17;8.15;;;4.25;;
41629;SDS011;27322;49.488;8.480;2023-07-09T07:53:42;7.13;;;3.83;;
41629;SDS011;27322;49.488;8.480;2023-07-09T07:56:09;8.23;;;3.88;;
41629;SDS011;27322;49.488;8.480;2023-07-09T07:58:35;6.60;;;4.07;;
41629;SDS011;27322;49.488;8.480;2023-07-09T08:01:00;8.00;;;4.18;;
41629;SDS011;27322;49.488;8.480;2023-07-09T08:03:26;8.00;;;4.10;;
41629;SDS011;27322;49.488;8.480;2023-07-09T08:05:52;9.70;;;3.80;;
41629;SDS011;27322;49.488;8.480;2023-07-09T08:08:17;8.15;;;4.05;;
41629;SDS011;27322;49.488;8.480;2023-07-09T08:10:43;7.32;;;4.20;;
41629;SDS011;27322;49.488;8.480;2023-07-09T08:13:09;7.30;;;3.83;;
41629;SDS011;27322;49.488;8.480;2023-07-09T08:15:34;7.70;;;4.30;;
41629;SDS011;27322;49.488;8.480;2023-07-09T08:18:00;8.10;;;4.00;;
41629;SDS011;27322;49.488;8.480;2023-07-09T08:20:26;6.93;;;3.88;;
41629;SDS011;27322;49.488;8.480;2023-07-09T08:22:51;8.40;;;4.30;;
41629;SDS011;27322;49.488;8.480;2023-07-09T08:25:17;8.52;;;4.30;;
41629;SDS011;27322;49.488;8.480;2023-07-09T08:27:43;7.40;;;4.10;;
41629;SDS011;27322;49.488;8.480;2023-07-09T08:30:08;6.55;;;3.72;;
41629;SDS011;27322;49.488;8.480;2023-07-09T08:32:34;7.13;;;3.67;;
41629;SDS011;27322;49.488;8.480;2023-07-09T08:35:00;7.00;;;3.55;;
41629;SDS011;27322;49.488;8.480;2023-07-09T08:37:26;5.82;;;3.50;;
41629;SDS011;27322;49.488;8.480;2023-07-09T08:39:51;8.95;;;4.00;;
41629;SDS011;27322;49.488;8.480;2023-07-09T08:42:23;7.03;;;4.10;;
41629;SDS011;27322;49.488;8.480;2023-07-09T08:47:47;7.07;;;3.45;;
41629;SDS011;27322;49.488;8.480;2023-07-09T08:50:24;7.40;;;3.40;;
41629;SDS011;27322;49.488;8.480;2023-07-09T08:52:54;7.53;;;4.10;;
41629;SDS011;27322;49.488;8.480;2023-07-09T08:55:28;8.15;;;3.80;;
41629;SDS011;27322;49.488;8.480;2023-07-09T08:58:10;7.72;;;3.60;;
41629;SDS011;27322;49.488;8.480;2023-07-09T09:00:53;10.18;;;6.15;;
41629;SDS011;27322;49.488;8.480;2023-07-09T09:06:15;6.75;;;3.63;;
41629;SDS011;27322;49.488;8.480;2023-07-09T09:14:03;6.28;;;3.80;;
41629;SDS011;27322;49.488;8.480;2023-07-09T09:16:33;6.18;;;3.50;;
41629;SDS011;27322;49.488;8.480;2023-07-09T09:19:03;7.10;;;3.45;;
41629;SDS011;27322;49.488;8.480;2023-07-09T09:24:20;9.98;;;5.13;;
41629;SDS011;27322;49.488;8.480;2023-07-09T09:27:07;6.95;;;4.32;;
41629;SDS011;27322;49.488;8.480;2023-07-09T09:29:33;8.30;;;3.63;;
41629;SDS011;27322;49.488;8.480;2023-07-09T09:31:59;6.60;;;3.22;;
41629;SDS011;27322;49.488;8.480;2023-07-09T09:34:37;5.90;;;3.30;;
41629;SDS011;27322;49.488;8.480;2023-07-09T09:37:09;6.88;;;3.20;;
41629;SDS011;27322;49.488;8.480;2023-07-09T09:39:37;5.55;;;3.25;;
41629;SDS011;27322;49.488;8.480;2023-07-09T09:42:07;6.47;;;3.38;;
41629;SDS011;27322;49.488;8.480;2023-07-09T09:44:42;7.80;;;3.85;;
41629;SDS011;27322;49.488;8.480;2023-07-09T09:47:10;10.15;;;3.50;;
41629;SDS011;27322;49.488;8.480;2023-07-09T09:49:42;6.85;;;3.20;;
41629;SDS011;27322;49.488;8.480;2023-07-09T09:52:18;7.25;;;3.83;;
41629;SDS011;27322;49.488;8.480;2023-07-09T09:54:48;7.50;;;3.50;;
41629;SDS011;27322;49.488;8.480;2023-07-09T09:57:21;5.70;;;3.25;;
41629;SDS011;27322;49.488;8.480;2023-07-09T09:59:48;7.55;;;3.20;;
41629;SDS011;27322;49.488;8.480;2023-07-09T10:02:16;6.70;;;3.08;;
41629;SDS011;27322;49.488;8.480;2023-07-09T10:04:49;6.32;;;3.38;;
41629;SDS011;27322;49.488;8.480;2023-07-09T10:07:38;8.25;;;3.13;;
41629;SDS011;27322;49.488;8.480;2023-07-09T10:10:08;6.32;;;3.00;;
41629;SDS011;27322;49.488;8.480;2023-07-09T10:13:30;6.25;;;3.22;;
41629;SDS011;27322;49.488;8.480;2023-07-09T10:15:48;9.48;;;3.22;;
41629;SDS011;27322;49.488;8.480;2023-07-09T10:21:54;6.30;;;3.03;;
41629;SDS011;27322;49.488;8.480;2023-07-09T10:27:03;6.13;;;2.88;;
41629;SDS011;27322;49.488;8.480;2023-07-09T10:29:59;5.40;;;2.50;;
41629;SDS011;27322;49.488;8.480;2023-07-09T10:35:05;7.78;;;3.00;;
41629;SDS011;27322;49.488;8.480;2023-07-09T10:37:52;8.27;;;3.05;;
41629;SDS011;27322;49.488;8.480;2023-07-09T10:40:31;6.40;;;2.72;;
41629;SDS011;27322;49.488;8.480;2023-07-09T10:43:10;8.32;;;3.17;;
41629;SDS011;27322;49.488;8.480;2023-07-09T10:45:48;6.40;;;2.88;;
41629;SDS011;27322;49.488;8.480;2023-07-09T10:48:28;8.40;;;2.42;;
41629;SDS011;27322;49.488;8.480;2023-07-09T10:51:15;7.22;;;2.70;;
41629;SDS011;27322;49.488;8.480;2023-07-09T10:56:30;6.60;;;2.67;;
41629;SDS011;27322;49.488;8.480;2023-07-09T10:59:13;5.38;;;2.80;;
41629;SDS011;27322;49.488;8.480;2023-07-09T11:07:13;7.75;;;2.75;;
41629;SDS011;27322;49.488;8.480;2023-07-09T11:09:44;4.82;;;2.60;;
41629;SDS011;27322;49.488;8.480;2023-07-09T11:14:54;6.38;;;3.05;;
41629;SDS011;27322;49.488;8.480;2023-07-09T11:17:26;5.13;;;2.97;;
41629;SDS011;27322;49.488;8.480;2023-07-09T11:19:54;6.22;;;2.55;;
41629;SDS011;27322;49.488;8.480;2023-07-09T11:22:39;4.93;;;3.05;;
41629;SDS011;27322;49.488;8.480;2023-07-09T11:25:06;8.40;;;3.15;;
41629;SDS011;27322;49.488;8.480;2023-07-09T11:27:53;6.30;;;2.85;;
41629;SDS011;27322;49.488;8.480;2023-07-09T11:30:27;5.07;;;2.92;;
41629;SDS011;27322;49.488;8.480;2023-07-09T11:32:56;5.65;;;2.83;;
41629;SDS011;27322;49.488;8.480;2023-07-09T11:35:24;5.43;;;2.80;;
41629;SDS011;27322;49.488;8.480;2023-07-09T11:37:51;5.05;;;2.70;;
41629;SDS011;27322;49.488;8.480;2023-07-09T11:40:21;4.53;;;2.40;;
41629;SDS011;27322;49.488;8.480;2023-07-09T11:45:16;4.93;;;2.20;;
41629;SDS011;27322;49.488;8.480;2023-07-09T11:47:51;7.30;;;2.90;;
41629;SDS011;27322;49.488;8.480;2023-07-09T11:50:28;5.05;;;2.65;;
41629;SDS011;27322;49.488;8.480;2023-07-09T11:55:48;6.53;;;2.50;;
41629;SDS011;27322;49.488;8.480;2023-07-09T11:58:15;6.20;;;2.58;;
41629;SDS011;27322;49.488;8.480;2023-07-09T12:03:11;5.90;;;2.33;;
41629;SDS011;27322;49.488;8.480;2023-07-09T12:05:51;5.45;;;2.78;;
41629;SDS011;27322;49.488;8.480;2023-07-09T12:08:20;4.28;;;2.15;;
41629;SDS011;27322;49.488;8.480;2023-07-09T12:10:57;5.90;;;2.60;;
41629;SDS011;27322;49.488;8.480;2023-07-09T12:13:23;9.15;;;3.17;;
41629;SDS011;27322;49.488;8.480;2023-07-09T12:15:48;7.30;;;2.80;;
41629;SDS011;27322;49.488;8.480;2023-07-09T12:18:14;4.57;;;2.50;;
41629;SDS011;27322;49.488;8.480;2023-07-09T12:20:41;5.47;;;2.35;;
41629;SDS011;27322;49.488;8.480;2023-07-09T12:25:48;4.47;;;2.50;;
41629;SDS011;27322;49.488;8.480;2023-07-09T12:28:15;5.03;;;2.45;;
41629;SDS011;27322;49.488;8.480;2023-07-09T12:30:48;5.43;;;2.45;;
41629;SDS011;27322;49.488;8.480;2023-07-09T12:33:16;5.55;;;2.47;;
41629;SDS011;27322;49.488;8.480;2023-07-09T12:35:46;6.50;;;2.65;;
41629;SDS011;27322;49.488;8.480;2023-07-09T12:38:18;8.30;;;2.60;;
41629;SDS011;27322;49.488;8.480;2023-07-09T12:40:45;6.10;;;2.50;;
41629;SDS011;27322;49.488;8.480;2023-07-09T12:43:13;6.00;;;2.78;;
41629;SDS011;27322;49.488;8.480;2023-07-09T12:45:38;5.25;;;2.60;;
41629;SDS011;27322;49.488;8.480;2023-07-09T12:48:04;6.05;;;2.30;;
41629;SDS011;27322;49.488;8.480;2023-07-09T12:50:31;5.07;;;2.67;;
41629;SDS011;27322;49.488;8.480;2023-07-09T12:53:15;6.75;;;2.80;;
41629;SDS011;27322;49.488;8.480;2023-07-09T12:55:44;5.28;;;2.50;;
41629;SDS011;27322;49.488;8.480;2023-07-09T12:58:15;4.55;;;2.65;;
41629;SDS011;27322;49.488;8.480;2023-07-09T13:00:48;6.97;;;2.63;;
41629;SDS011;27322;49.488;8.480;2023-07-09T13:03:16;7.25;;;2.90;;
41629;SDS011;27322;49.488;8.480;2023-07-09T13:08:55;5.53;;;2.33;;
41629;SDS011;27322;49.488;8.480;2023-07-09T13:11:24;8.00;;;2.50;;
41629;SDS011;27322;49.488;8.480;2023-07-09T13:14:01;5.85;;;2.58;;
41629;SDS011;27322;49.488;8.480;2023-07-09T13:16:28;5.65;;;2.65;;
41629;SDS011;27322;49.488;8.480;2023-07-09T13:18:54;3.30;;;2.05;;
41629;SDS011;27322;49.488;8.480;2023-07-09T13:21:20;5.38;;;2.47;;
41629;SDS011;27322;49.488;8.480;2023-07-09T13:23:47;4.47;;;2.67;;
41629;SDS011;27322;49.488;8.480;2023-07-09T13:26:13;4.57;;;2.13;;
41629;SDS011;27322;49.488;8.480;2023-07-09T13:28:39;8.40;;;2.60;;
41629;SDS011;27322;49.488;8.480;2023-07-09T13:31:15;4.88;;;2.30;;
41629;SDS011;27322;49.488;8.480;2023-07-09T13:34:04;5.55;;;2.20;;
41629;SDS011;27322;49.488;8.480;2023-07-09T13:36:41;5.03;;;2.13;;
41629;SDS011;27322;49.488;8.480;2023-07-09T13:39:08;4.88;;;2.17;;
41629;SDS011;27322;49.488;8.480;2023-07-09T13:41:35;4.35;;;2.20;;
41629;SDS011;27322;49.488;8.480;2023-07-09T13:44:04;6.35;;;2.20;;
41629;SDS011;27322;49.488;8.480;2023-07-09T13:46:43;4.25;;;1.83;;
41629;SDS011;27322;49.488;8.480;2023-07-09T13:49:13;4.72;;;2.05;;
41629;SDS011;27322;49.488;8.480;2023-07-09T13:51:42;5.13;;;1.80;;
41629;SDS011;27322;49.488;8.480;2023-07-09T13:54:24;4.13;;;2.00;;
41629;SDS011;27322;49.488;8.480;2023-07-09T13:56:56;6.93;;;2.50;;
41629;SDS011;27322;49.488;8.480;2023-07-09T13:59:23;4.65;;;2.30;;
41629;SDS011;27322;49.488;8.480;2023-07-09T14:01:50;6.00;;;2.10;;
41629;SDS011;27322;49.488;8.480;2023-07-09T14:04:19;4.90;;;2.10;;
41629;SDS011;27322;49.488;8.480;2023-07-09T14:06:45;4.30;;;2.10;;
41629;SDS011;27322;49.488;8.480;2023-07-09T14:09:11;5.15;;;2.40;;
41629;SDS011;27322;49.488;8.480;2023-07-09T14:11:39;5.70;;;2.20;;
41629;SDS011;27322;49.488;8.480;2023-07-09T14:14:17;5.85;;;2.08;;
41629;SDS011;27322;49.488;8.480;2023-07-09T14:16:44;4.93;;;2.40;;
41629;SDS011;27322;49.488;8.480;2023-07-09T14:19:12;4.60;;;2.20;;
41629;SDS011;27322;49.488;8.480;2023-07-09T14:21:39;7.18;;;2.50;;
41629;SDS011;27322;49.488;8.480;2023-07-09T14:24:18;4.70;;;2.30;;
41629;SDS011;27322;49.488;8.480;2023-07-09T14:26:44;4.55;;;2.05;;
41629;SDS011;27322;49.488;8.480;2023-07-09T14:29:13;5.18;;;2.40;;
41629;SDS011;27322;49.488;8.480;2023-07-09T14:31:39;5.38;;;2.42;;
41629;SDS011;27322;49.488;8.480;2023-07-09T14:34:22;6.53;;;1.95;;
41629;SDS011;27322;49.488;8.480;2023-07-09T14:36:51;4.97;;;2.22;;
41629;SDS011;27322;49.488;8.480;2023-07-09T14:39:18;5.88;;;2.38;;
41629;SDS011;27322;49.488;8.480;2023-07-09T14:41:43;4.22;;;1.92;;
41629;SDS011;27322;49.488;8.480;2023-07-09T14:44:25;4.60;;;2.00;;
41629;SDS011;27322;49.488;8.480;2023-07-09T14:46:54;4.50;;;2.00;;
41629;SDS011;27322;49.488;8.480;2023-07-09T14:49:21;4.95;;;2.40;;
41629;SDS011;27322;49.488;8.480;2023-07-09T14:51:47;5.53;;;2.15;;
41629;SDS011;27322;49.488;8.480;2023-07-09T14:54:18;4.53;;;2.15;;
41629;SDS011;27322;49.488;8.480;2023-07-09T14:56:49;6.55;;;2.30;;
41629;SDS011;27322;49.488;8.480;2023-07-09T14:59:15;6.28;;;2.40;;
41629;SDS011;27322;49.488;8.480;2023-07-09T15:01:41;5.78;;;2.35;;
41629;SDS011;27322;49.488;8.480;2023-07-09T15:06:54;5.25;;;2.47;;
41629;SDS011;27322;49.488;8.480;2023-07-09T15:09:22;4.47;;;2.20;;
41629;SDS011;27322;49.488;8.480;2023-07-09T15:11:50;5.05;;;2.42;;
41629;SDS011;27322;49.488;8.480;2023-07-09T15:14:18;4.75;;;2.45;;
41629;SDS011;27322;49.488;8.480;2023-07-09T15:16:45;6.80;;;2.30;;
41629;SDS011;27322;49.488;8.480;2023-07-09T15:19:16;6.75;;;2.35;;
41629;SDS011;27322;49.488;8.480;2023-07-09T15:21:43;7.18;;;2.38;;
41629;SDS011;27322;49.488;8.480;2023-07-09T15:26:56;6.90;;;2.50;;
41629;SDS011;27322;49.488;8.480;2023-07-09T15:29:22;6.50;;;2.30;;
41629;SDS011;27322;49.488;8.480;2023-07-09T15:31:48;5.55;;;2.20;;
41629;SDS011;27322;49.488;8.480;2023-07-09T15:34:14;5.72;;;2.22;;
41629;SDS011;27322;49.488;8.480;2023-07-09T15:36:43;5.72;;;2.40;;
41629;SDS011;27322;49.488;8.480;2023-07-09T15:39:11;4.80;;;2.35;;
41629;SDS011;27322;49.488;8.480;2023-07-09T15:41:37;7.38;;;2.25;;
41629;SDS011;27322;49.488;8.480;2023-07-09T15:44:03;5.43;;;2.25;;
41629;SDS011;27322;49.488;8.480;2023-07-09T15:46:29;5.70;;;2.45;;
41629;SDS011;27322;49.488;8.480;2023-07-09T15:48:55;4.57;;;2.25;;
41629;SDS011;27322;49.488;8.480;2023-07-09T15:51:21;5.47;;;2.40;;
41629;SDS011;27322;49.488;8.480;2023-07-09T15:53:47;5.43;;;2.30;;
41629;SDS011;27322;49.488;8.480;2023-07-09T15:56:15;4.63;;;2.13;;